createdAt,value
2022-09-06T00:02:02.576Z,11.77
2022-09-06T00:04:29.026Z,10.57
2022-09-06T00:06:55.420Z,13.45
2022-09-06T00:09:21.829Z,17.55
2022-09-06T00:11:48.217Z,12.10
2022-09-06T00:14:14.611Z,9.18
2022-09-06T00:16:41.120Z,10.88
2022-09-06T00:19:07.543Z,15.60
2022-09-06T00:21:35.582Z,11.68
2022-09-06T00:24:03.857Z,15.77
2022-09-06T00:26:30.294Z,9.32
2022-09-06T00:28:56.697Z,13.60
2022-09-06T00:31:25.716Z,12.32
2022-09-06T00:33:52.480Z,9.40
2022-09-06T00:36:20.054Z,10.38
2022-09-06T00:38:46.474Z,11.95
2022-09-06T00:41:15.217Z,11.85
2022-09-06T00:43:42.659Z,10.70
2022-09-06T00:46:12.054Z,11.05
2022-09-06T00:48:39.827Z,11.35
2022-09-06T00:51:10.421Z,13.50
2022-09-06T00:53:37.574Z,15.57
2022-09-06T00:56:04.384Z,12.85
2022-09-06T00:58:31.018Z,10.23
2022-09-06T01:00:57.463Z,12.88
2022-09-06T01:03:25.415Z,13.10
2022-09-06T01:06:12.332Z,11.10
2022-09-06T01:09:02.113Z,11.98
2022-09-06T01:11:49.429Z,12.77
2022-09-06T01:14:28.939Z,14.60
2022-09-06T01:17:10.675Z,13.70
2022-09-06T01:20:21.932Z,13.32
2022-09-06T01:23:07.237Z,18.35
2022-09-06T01:25:48.094Z,15.40
2022-09-06T01:28:27.719Z,15.88
2022-09-06T01:31:09.066Z,15.05
2022-09-06T01:33:46.034Z,13.02
2022-09-06T01:36:18.346Z,11.70
2022-09-06T01:38:44.808Z,12.80
2022-09-06T01:41:11.331Z,14.27
2022-09-06T01:43:40.941Z,11.10
2022-09-06T01:46:30.431Z,12.82
2022-09-06T01:49:11.830Z,17.55
2022-09-06T01:52:04.528Z,14.80
2022-09-06T01:54:48.448Z,9.43
2022-09-06T02:00:20.148Z,11.73
2022-09-06T02:02:58.593Z,12.13
2022-09-06T02:05:51.157Z,9.52
2022-09-06T02:08:25.556Z,13.65
2022-09-06T02:10:57.972Z,11.63
2022-09-06T02:13:27.605Z,10.15
2022-09-06T02:16:01.989Z,10.75
2022-09-06T02:18:34.471Z,11.27
2022-09-06T02:21:03.414Z,14.15
2022-09-06T02:23:35.877Z,9.65
2022-09-06T02:26:10.520Z,10.75
2022-09-06T02:28:36.986Z,10.65
2022-09-06T02:31:13.082Z,10.35
2022-09-06T02:33:43.792Z,13.40
2022-09-06T02:36:10.982Z,11.57
2022-09-06T02:38:40.632Z,12.38
2022-09-06T02:41:08.131Z,17.20
2022-09-06T02:43:34.676Z,13.00
2022-09-06T02:46:01.255Z,12.60
2022-09-06T02:48:27.995Z,13.20
2022-09-06T02:50:54.538Z,13.70
2022-09-06T02:53:21.027Z,15.20
2022-09-06T02:55:48.715Z,15.25
2022-09-06T02:58:16.190Z,14.32
2022-09-06T03:00:42.597Z,10.95
2022-09-06T03:03:08.985Z,11.57
2022-09-06T03:05:35.491Z,11.98
2022-09-06T03:08:02.166Z,13.23
2022-09-06T03:10:28.637Z,16.15
2022-09-06T03:12:55.052Z,14.23
2022-09-06T03:15:21.613Z,14.43
2022-09-06T03:17:48.014Z,13.48
2022-09-06T03:20:14.668Z,10.68
2022-09-06T03:22:41.491Z,14.10
2022-09-06T03:25:09.743Z,13.43
2022-09-06T03:27:36.851Z,12.70
2022-09-06T03:30:04.841Z,12.18
2022-09-06T03:32:31.252Z,16.55
2022-09-06T03:34:58.066Z,13.60
2022-09-06T03:37:24.464Z,13.25
2022-09-06T03:39:50.967Z,12.02
2022-09-06T03:42:17.454Z,13.23
2022-09-06T03:44:43.868Z,14.82
2022-09-06T03:47:10.442Z,14.35
2022-09-06T03:49:36.867Z,16.45
2022-09-06T03:52:03.875Z,14.07
2022-09-06T03:54:30.847Z,18.42
2022-09-06T03:56:57.618Z,15.32
2022-09-06T03:59:24.023Z,12.95
2022-09-06T04:01:50.491Z,12.77
2022-09-06T04:04:16.903Z,15.35
2022-09-06T04:06:43.351Z,16.85
2022-09-06T04:09:09.915Z,13.23
2022-09-06T04:11:36.419Z,11.30
2022-09-06T04:14:02.867Z,14.88
2022-09-06T04:16:29.413Z,13.77
2022-09-06T04:18:55.897Z,11.85
2022-09-06T04:21:22.318Z,11.57
2022-09-06T04:23:48.822Z,13.15
2022-09-06T04:26:15.237Z,12.85
2022-09-06T04:28:41.663Z,11.82
2022-09-06T04:31:08.206Z,13.88
2022-09-06T04:33:36.382Z,18.25
2022-09-06T04:36:06.197Z,12.30
2022-09-06T04:38:37.179Z,16.67
2022-09-06T04:41:04.532Z,13.57
2022-09-06T04:43:31.170Z,12.55
2022-09-06T04:46:04.001Z,16.77
2022-09-06T04:48:30.926Z,11.55
2022-09-06T04:50:57.371Z,13.68
2022-09-06T04:53:24.971Z,12.52
2022-09-06T04:55:51.484Z,14.45
2022-09-06T04:58:18.041Z,12.25
2022-09-06T05:00:44.937Z,12.85
2022-09-06T05:03:11.376Z,14.10
2022-09-06T05:05:37.881Z,15.23
2022-09-06T05:08:04.295Z,11.48
2022-09-06T05:10:31.010Z,12.43
2022-09-06T05:12:57.427Z,11.63
2022-09-06T05:15:24.883Z,13.77
2022-09-06T05:17:51.276Z,14.27
2022-09-06T05:20:18.418Z,12.60
2022-09-06T05:22:53.156Z,16.80
2022-09-06T05:25:19.583Z,13.45
2022-09-06T05:27:46.000Z,13.07
2022-09-06T05:30:13.136Z,19.85
2022-09-06T05:32:42.458Z,18.27
2022-09-06T05:35:09.639Z,15.30
2022-09-06T05:37:36.041Z,16.67
2022-09-06T05:40:03.059Z,14.95
2022-09-06T05:42:31.827Z,14.73
2022-09-06T05:44:58.238Z,11.32
2022-09-06T05:47:24.661Z,17.20
2022-09-06T05:49:54.471Z,15.95
2022-09-06T05:52:21.302Z,14.20
2022-09-06T05:54:47.699Z,14.95
2022-09-06T05:57:14.574Z,12.40
2022-09-06T05:59:42.852Z,13.57
2022-09-06T06:02:09.753Z,14.40
2022-09-06T06:04:36.497Z,13.18
2022-09-06T06:07:03.457Z,13.38
2022-09-06T06:09:30.087Z,15.40
2022-09-06T06:11:56.534Z,16.25
2022-09-06T06:14:22.962Z,16.40
2022-09-06T06:16:49.988Z,12.25
2022-09-06T06:19:16.499Z,14.95
2022-09-06T06:21:43.700Z,13.05
2022-09-06T06:24:10.878Z,16.55
2022-09-06T06:26:37.837Z,17.45
2022-09-06T06:29:08.008Z,14.65
2022-09-06T06:31:34.440Z,15.82
2022-09-06T06:34:03.669Z,18.55
2022-09-06T06:36:31.651Z,12.82
2022-09-06T06:38:58.564Z,12.25
2022-09-06T06:41:26.863Z,16.77
2022-09-06T06:43:58.077Z,12.25
2022-09-06T06:46:27.583Z,14.20
2022-09-06T06:48:57.191Z,16.17
2022-09-06T06:51:26.563Z,10.73
2022-09-06T06:53:53.064Z,9.73
2022-09-06T06:56:27.774Z,12.50
2022-09-06T06:58:57.727Z,10.60
2022-09-06T07:01:26.258Z,17.05
2022-09-06T07:03:54.408Z,9.77
2022-09-06T07:06:22.460Z,9.95
2022-09-06T07:09:08.503Z,8.35
2022-09-06T07:11:34.915Z,10.27
2022-09-06T07:14:01.356Z,9.30
2022-09-06T07:16:29.934Z,11.77
2022-09-06T07:18:56.443Z,9.45
2022-09-06T07:21:43.139Z,9.40
2022-09-06T07:24:10.291Z,14.32
2022-09-06T07:26:39.406Z,10.90
2022-09-06T07:29:07.456Z,9.15
2022-09-06T07:34:22.196Z,9.93
2022-09-06T07:36:51.587Z,10.95
2022-09-06T07:39:18.086Z,12.23
2022-09-06T07:41:44.496Z,14.15
2022-09-06T07:44:11.095Z,11.15
2022-09-06T07:46:37.558Z,9.45
2022-09-06T07:49:05.373Z,9.90
2022-09-06T07:51:32.523Z,10.38
2022-09-06T07:54:26.289Z,10.52
2022-09-06T07:56:46.236Z,13.80
2022-09-06T07:59:12.668Z,9.52
2022-09-06T08:01:39.271Z,15.05
2022-09-06T08:04:15.178Z,14.95
2022-09-06T08:09:30.827Z,9.45
2022-09-06T08:11:57.335Z,9.52
2022-09-06T08:14:24.173Z,13.55
2022-09-06T08:16:51.264Z,9.90
2022-09-06T08:19:18.386Z,10.57
2022-09-06T08:21:44.866Z,10.50
2022-09-06T08:24:11.324Z,10.80
2022-09-06T08:26:40.462Z,9.95
2022-09-06T08:29:08.896Z,9.85
2022-09-06T08:31:37.996Z,12.48
2022-09-06T08:34:04.993Z,10.10
2022-09-06T08:36:32.316Z,10.02
2022-09-06T08:39:00.359Z,12.30
2022-09-06T08:41:31.122Z,12.23
2022-09-06T08:46:59.520Z,10.65
2022-09-06T08:49:32.342Z,9.70
2022-09-06T08:52:19.983Z,13.10
2022-09-06T08:54:56.886Z,12.00
2022-09-06T08:58:01.827Z,12.70
2022-09-06T09:00:28.271Z,11.25
2022-09-06T09:03:00.207Z,14.65
2022-09-06T09:05:38.211Z,16.17
2022-09-06T09:08:29.550Z,15.60
2022-09-06T09:11:06.507Z,13.25
2022-09-06T09:13:49.795Z,10.32
2022-09-06T09:16:17.600Z,11.52
2022-09-06T09:18:49.834Z,13.38
2022-09-06T09:21:21.102Z,13.02
2022-09-06T09:23:53.326Z,8.60
2022-09-06T09:26:22.532Z,13.70
2022-09-06T09:29:10.183Z,12.90
2022-09-06T09:31:53.398Z,6.78
2022-09-06T09:34:33.830Z,6.65
2022-09-06T09:37:49.771Z,8.38
2022-09-06T09:40:25.408Z,7.13
2022-09-06T09:42:54.832Z,7.13
2022-09-06T09:45:25.835Z,7.70
2022-09-06T09:47:52.274Z,9.55
2022-09-06T09:50:32.100Z,5.95
2022-09-06T09:53:09.317Z,8.55
2022-09-06T09:55:36.522Z,8.63
2022-09-06T09:58:03.930Z,7.18
2022-09-06T10:00:39.969Z,12.90
2022-09-06T10:03:15.009Z,5.75
2022-09-06T10:05:42.343Z,6.80
2022-09-06T10:08:13.075Z,6.80
2022-09-06T10:10:43.097Z,7.68
2022-09-06T10:13:22.266Z,6.85
2022-09-06T10:15:50.971Z,8.65
2022-09-06T10:18:20.567Z,8.93
2022-09-06T10:20:56.144Z,5.10
2022-09-06T10:26:36.437Z,9.68
2022-09-06T10:29:09.752Z,5.53
2022-09-06T10:31:39.121Z,5.35
2022-09-06T10:34:40.575Z,8.88
2022-09-06T10:37:09.943Z,6.90
2022-09-06T10:40:07.170Z,9.68
2022-09-06T10:42:47.456Z,8.63
2022-09-06T10:45:29.852Z,8.68
2022-09-06T10:48:04.748Z,4.47
2022-09-06T10:50:45.671Z,5.72
2022-09-06T10:53:34.698Z,15.02
2022-09-06T10:56:06.623Z,5.75
2022-09-06T11:02:11.784Z,5.97
2022-09-06T11:07:29.835Z,6.03
2022-09-06T11:10:14.308Z,6.72
2022-09-06T11:13:08.683Z,4.40
2022-09-06T11:15:45.237Z,3.70
2022-09-06T11:18:23.338Z,5.60
2022-09-06T11:20:58.243Z,4.75
2022-09-06T11:23:51.998Z,5.93
2022-09-06T11:26:36.961Z,3.83
2022-09-06T11:29:25.450Z,6.45
2022-09-06T11:32:17.062Z,4.55
2022-09-06T11:34:53.627Z,5.80
2022-09-06T11:37:27.147Z,5.65
2022-09-06T11:42:53.988Z,4.82
2022-09-06T11:45:23.236Z,5.85
2022-09-06T11:47:54.964Z,5.03
2022-09-06T11:50:21.335Z,6.30
2022-09-06T11:53:06.335Z,5.05
2022-09-06T11:55:48.728Z,7.82
2022-09-06T11:58:18.110Z,5.05
2022-09-06T12:00:46.415Z,10.20
2022-09-06T12:06:35.414Z,6.45
2022-09-06T12:09:02.769Z,3.35
2022-09-06T12:11:35.211Z,5.45
2022-09-06T12:14:05.879Z,6.03
2022-09-06T12:16:57.340Z,3.40
2022-09-06T12:19:53.866Z,2.90
2022-09-06T12:22:26.497Z,5.05
2022-09-06T12:24:58.134Z,7.55
2022-09-06T12:27:30.758Z,3.45
2022-09-06T12:30:00.058Z,5.35
2022-09-06T12:32:36.995Z,4.93
2022-09-06T12:37:58.913Z,3.70
2022-09-06T12:40:29.425Z,3.55
2022-09-06T12:42:56.526Z,4.90
2022-09-06T12:45:27.359Z,5.45
2022-09-06T12:48:07.039Z,2.97
2022-09-06T12:50:33.683Z,4.95
2022-09-06T12:53:02.125Z,6.50
2022-09-06T12:55:35.278Z,3.25
2022-09-06T12:58:07.602Z,4.15
2022-09-06T13:00:42.312Z,3.80
2022-09-06T13:03:29.989Z,5.88
2022-09-06T13:05:58.771Z,6.72
2022-09-06T13:08:33.408Z,6.53
2022-09-06T13:11:00.408Z,5.03
2022-09-06T13:13:27.453Z,5.68
2022-09-06T13:15:55.905Z,4.32
2022-09-06T13:18:36.887Z,4.00
2022-09-06T13:21:19.322Z,6.90
2022-09-06T13:23:48.734Z,2.90
2022-09-06T13:26:15.789Z,4.93
2022-09-06T13:28:42.260Z,3.00
2022-09-06T13:31:19.669Z,4.22
2022-09-06T13:33:56.965Z,5.38
2022-09-06T13:36:27.827Z,4.35
2022-09-06T13:38:55.525Z,6.22
2022-09-06T13:41:24.685Z,4.15
2022-09-06T13:44:18.625Z,3.70
2022-09-06T13:46:45.587Z,5.43
2022-09-06T13:49:12.035Z,7.13
2022-09-06T13:51:39.261Z,6.57
2022-09-06T13:54:08.629Z,3.95
2022-09-06T13:56:35.254Z,4.95
2022-09-06T13:59:02.201Z,9.73
2022-09-06T14:01:28.778Z,3.85
2022-09-06T14:03:55.313Z,6.40
2022-09-06T14:06:22.243Z,6.80
2022-09-06T14:09:06.313Z,5.50
2022-09-06T14:11:33.690Z,4.90
2022-09-06T14:14:00.152Z,5.55
2022-09-06T14:16:26.787Z,10.88
2022-09-06T14:18:53.264Z,7.20
2022-09-06T14:21:20.140Z,6.40
2022-09-06T14:23:53.765Z,5.35
2022-09-06T14:26:21.666Z,5.43
2022-09-06T14:28:48.371Z,4.55
2022-09-06T14:31:17.706Z,4.63
2022-09-06T14:33:44.198Z,5.10
2022-09-06T14:36:17.516Z,4.32
2022-09-06T14:38:46.078Z,4.30
2022-09-06T14:41:14.478Z,6.88
2022-09-06T14:43:45.164Z,5.00
2022-09-06T14:46:14.213Z,4.00
2022-09-06T14:48:42.615Z,4.70
2022-09-06T14:51:20.749Z,4.50
2022-09-06T14:53:48.768Z,6.95
2022-09-06T14:56:16.048Z,6.28
2022-09-06T14:58:43.396Z,5.45
2022-09-06T15:01:19.017Z,6.75
2022-09-06T15:03:51.649Z,11.18
2022-09-06T15:06:20.467Z,6.20
2022-09-06T15:08:48.530Z,5.50
2022-09-06T15:11:27.364Z,4.35
2022-09-06T15:13:53.782Z,7.40
2022-09-06T15:16:20.251Z,5.90
2022-09-06T15:18:46.685Z,3.72
2022-09-06T15:21:15.340Z,6.40
2022-09-06T15:23:43.219Z,4.82
2022-09-06T15:26:11.983Z,4.93
2022-09-06T15:28:40.154Z,4.90
2022-09-06T15:31:08.254Z,7.07
2022-09-06T15:33:36.613Z,6.88
2022-09-06T15:36:06.670Z,8.90
2022-09-06T15:38:34.474Z,14.02
2022-09-06T15:41:13.556Z,12.52
2022-09-06T15:43:45.914Z,7.97
2022-09-06T15:46:12.992Z,6.55
2022-09-06T15:48:47.321Z,11.00
2022-09-06T15:51:16.531Z,5.97
2022-09-06T15:53:43.713Z,9.00
2022-09-06T15:56:13.012Z,13.35
2022-09-06T15:58:39.519Z,9.13
2022-09-06T16:01:14.244Z,6.90
2022-09-06T16:03:46.767Z,8.93
2022-09-06T16:06:28.470Z,13.55
2022-09-06T16:09:07.456Z,10.88
2022-09-06T16:11:36.514Z,13.32
2022-09-06T16:14:05.258Z,9.57
2022-09-06T16:16:32.715Z,8.13
2022-09-06T16:19:00.171Z,8.13
2022-09-06T16:21:30.694Z,6.45
2022-09-06T16:24:00.012Z,4.93
2022-09-06T16:26:29.788Z,6.82
2022-09-06T16:28:56.191Z,8.00
2022-09-06T16:31:23.044Z,6.35
2022-09-06T16:33:50.291Z,8.20
2022-09-06T16:36:18.782Z,6.18
2022-09-06T16:38:46.108Z,6.75
2022-09-06T16:41:17.214Z,7.00
2022-09-06T16:43:45.785Z,4.82
2022-09-06T16:46:13.025Z,5.22
2022-09-06T16:48:40.651Z,6.57
2022-09-06T16:51:18.094Z,5.07
2022-09-06T16:53:46.491Z,7.90
2022-09-06T16:56:16.121Z,6.82
2022-09-06T16:58:49.830Z,5.22
2022-09-06T17:01:16.418Z,7.00
2022-09-06T17:03:43.031Z,5.75
2022-09-06T17:06:10.544Z,6.00
2022-09-06T17:08:37.309Z,5.82
2022-09-06T17:11:11.170Z,6.13
2022-09-06T17:13:37.882Z,8.05
2022-09-06T17:16:23.987Z,6.60
2022-09-06T17:18:53.651Z,7.43
2022-09-06T17:21:21.779Z,5.45
2022-09-06T17:23:49.514Z,4.90
2022-09-06T17:26:17.206Z,5.65
2022-09-06T17:28:43.644Z,7.53
2022-09-06T17:31:10.192Z,5.18
2022-09-06T17:33:36.800Z,5.38
2022-09-06T17:36:12.141Z,6.88
2022-09-06T17:38:40.328Z,10.45
2022-09-06T17:41:06.985Z,7.38
2022-09-06T17:43:36.043Z,10.00
2022-09-06T17:46:04.084Z,11.80
2022-09-06T17:48:30.730Z,7.78
2022-09-06T17:51:05.524Z,8.13
2022-09-06T17:53:31.976Z,7.50
2022-09-06T17:55:58.488Z,6.68
2022-09-06T17:58:25.100Z,7.78
2022-09-06T18:00:51.792Z,6.55
2022-09-06T18:03:18.270Z,7.65
2022-09-06T18:05:45.216Z,10.80
2022-09-06T18:08:11.797Z,8.15
2022-09-06T18:10:38.811Z,7.00
2022-09-06T18:13:06.111Z,6.43
2022-09-06T18:15:38.947Z,7.75
2022-09-06T18:18:05.561Z,7.07
2022-09-06T18:20:31.965Z,9.52
2022-09-06T18:22:59.355Z,7.82
2022-09-06T18:25:26.274Z,6.18
2022-09-06T18:27:52.750Z,6.65
2022-09-06T18:30:19.200Z,8.73
2022-09-06T18:32:45.764Z,8.57
2022-09-06T18:35:12.327Z,5.32
2022-09-06T18:37:38.767Z,5.88
2022-09-06T18:40:06.595Z,6.88
2022-09-06T18:42:33.754Z,7.72
2022-09-06T18:45:00.177Z,7.10
2022-09-06T18:47:26.649Z,8.82
2022-09-06T18:49:53.134Z,7.25
2022-09-06T18:52:20.780Z,6.45
2022-09-06T18:54:49.191Z,7.68
2022-09-06T18:57:17.152Z,8.38
2022-09-06T18:59:44.365Z,7.45
2022-09-06T19:02:11.267Z,8.43
2022-09-06T19:04:37.775Z,6.90
2022-09-06T19:07:04.417Z,5.70
2022-09-06T19:09:31.010Z,8.65
2022-09-06T19:11:57.428Z,9.00
2022-09-06T19:14:23.960Z,10.45
2022-09-06T19:16:53.748Z,9.32
2022-09-06T19:19:21.781Z,8.00
2022-09-06T19:21:48.235Z,7.40
2022-09-06T19:24:16.236Z,46.50
2022-09-06T19:26:44.153Z,10.50
2022-09-06T19:29:16.051Z,10.50
2022-09-06T19:31:43.090Z,8.27
2022-09-06T19:34:09.700Z,9.70
2022-09-06T19:36:36.236Z,10.43
2022-09-06T19:39:06.023Z,13.00
2022-09-06T19:41:36.260Z,6.93
2022-09-06T19:44:05.443Z,10.93
2022-09-06T19:46:32.098Z,7.93
2022-09-06T19:48:58.868Z,10.00
2022-09-06T19:51:25.714Z,7.10
2022-09-06T19:53:54.742Z,7.25
2022-09-06T19:56:24.410Z,9.32
2022-09-06T19:58:55.663Z,12.65
2022-09-06T20:01:22.623Z,8.57
2022-09-06T20:03:49.191Z,8.27
2022-09-06T20:06:15.647Z,6.72
2022-09-06T20:08:42.302Z,10.55
2022-09-06T20:11:12.577Z,6.43
2022-09-06T20:13:39.890Z,9.15
2022-09-06T20:16:08.121Z,7.30
2022-09-06T20:18:35.472Z,8.85
2022-09-06T20:21:02.399Z,7.72
2022-09-06T20:23:30.566Z,7.68
2022-09-06T20:25:59.574Z,11.15
2022-09-06T20:28:26.670Z,8.02
2022-09-06T20:30:53.167Z,8.95
2022-09-06T20:33:19.875Z,11.32
2022-09-06T20:36:03.550Z,12.02
2022-09-06T20:41:05.736Z,7.35
2022-09-06T20:43:35.160Z,7.93
2022-09-06T20:46:04.406Z,9.52
2022-09-06T20:48:40.912Z,9.18
2022-09-06T20:51:14.904Z,11.00
2022-09-06T20:53:41.658Z,9.73
2022-09-06T20:56:17.271Z,8.00
2022-09-06T20:58:49.902Z,14.38
2022-09-06T21:01:22.990Z,8.57
2022-09-06T21:03:52.689Z,12.70
2022-09-06T21:06:20.503Z,9.55
2022-09-06T21:08:47.774Z,8.73
2022-09-06T21:11:14.863Z,9.80
2022-09-06T21:13:41.471Z,13.82
2022-09-06T21:16:08.710Z,9.15
2022-09-06T21:18:35.971Z,11.90
2022-09-06T21:21:04.947Z,14.10
2022-09-06T21:23:34.616Z,9.40
2022-09-06T21:26:03.289Z,9.43
2022-09-06T21:28:33.515Z,13.43
2022-09-06T21:31:11.774Z,10.63
2022-09-06T21:33:40.985Z,10.60
2022-09-06T21:36:12.936Z,9.52
2022-09-06T21:38:42.302Z,11.68
2022-09-06T21:41:10.466Z,12.75
2022-09-06T21:43:37.172Z,15.13
2022-09-06T21:46:11.300Z,13.68
2022-09-06T21:48:38.794Z,8.50
2022-09-06T21:51:09.828Z,14.25
2022-09-06T21:53:37.391Z,10.23
2022-09-06T21:56:05.073Z,10.63
2022-09-06T21:58:32.635Z,9.13
2022-09-06T22:01:00.527Z,11.45
2022-09-06T22:03:28.875Z,13.70
2022-09-06T22:05:55.556Z,10.90
2022-09-06T22:08:23.113Z,10.85
2022-09-06T22:10:49.670Z,8.85
2022-09-06T22:13:17.343Z,10.73
2022-09-06T22:15:43.888Z,9.82
2022-09-06T22:18:11.832Z,9.93
2022-09-06T22:20:38.704Z,12.15
2022-09-06T22:23:06.776Z,12.63
2022-09-06T22:25:33.794Z,12.52
2022-09-06T22:28:00.564Z,10.93
2022-09-06T22:30:27.537Z,9.10
2022-09-06T22:32:53.986Z,16.90
2022-09-06T22:35:21.355Z,12.85
2022-09-06T22:37:47.749Z,8.77
2022-09-06T22:40:14.160Z,13.68
2022-09-06T22:42:40.614Z,10.43
2022-09-06T22:45:07.527Z,13.95
2022-09-06T22:47:33.952Z,10.13
2022-09-06T22:50:00.363Z,13.85
2022-09-06T22:52:26.826Z,10.48
2022-09-06T22:54:53.239Z,10.27
2022-09-06T22:57:19.788Z,10.98
2022-09-06T22:59:46.200Z,11.52
2022-09-06T23:02:12.598Z,9.43
2022-09-06T23:04:39.124Z,16.45
2022-09-06T23:07:06.033Z,10.32
2022-09-06T23:09:32.451Z,15.02
2022-09-06T23:11:58.886Z,9.43
2022-09-06T23:14:27.890Z,9.70
2022-09-06T23:16:54.774Z,9.70
2022-09-06T23:19:21.302Z,8.88
2022-09-06T23:21:47.771Z,15.25
2022-09-06T23:24:14.211Z,10.27
2022-09-06T23:26:40.643Z,11.05
2022-09-06T23:29:07.852Z,9.73
2022-09-06T23:31:35.193Z,10.18
2022-09-06T23:34:02.530Z,9.48
2022-09-06T23:36:29.469Z,14.52
2022-09-06T23:38:56.280Z,13.30
2022-09-06T23:41:23.212Z,8.90
2022-09-06T23:43:49.637Z,9.63
2022-09-06T23:46:16.856Z,9.38
2022-09-06T23:48:43.520Z,9.93
2022-09-06T23:51:11.085Z,11.57
2022-09-06T23:53:37.962Z,11.98
2022-09-06T23:56:05.088Z,13.93
2022-09-06T23:58:31.749Z,10.75
